Wymondham, United Kingdom
Current Conditions -  °F | °C
As of 1:20 PM on Wednesday 22 Oct 2014 (Local Time) from EGSH Reporting Station
Few Clouds Few Clouds  
Wind Chill: 55°   Ceiling: Unl
Heat Index: 55°   Visibility: 6mi
Dew Point: 41°   Wind: 15mph
Humidity: 58%   Direction: 290°WNW
Pressure: 30.18"   Gusts: NA
Location:  52.57°N, 1.11°E
Report Text: EGSH 221220Z 29013KT 270V330 9999 FEW031 13/05 Q1022 NOSIG
Loading
Personal Weather Stations






























Interactive Weather Map New forecast layout! Learn more

10-Day Weather Forecast

Advertisements
Track Severe Weather on mobile